Time;durP1;ratioP1;P1;durP2;ratioP2;P2;SDS_P1;SDS_P2;PMS_P1;PMS_P2;Temp;Humidity;BMP_temperature;BMP_pressure;BME280_temperature;BME280_humidity;BME280_pressure;Samples;Min_cycle;Max_cycle;Signal;HPM_P1;HPM_P2
2022/08/02 00:02:11;;;;;;;6.93;3.00;;;;;;;;;;4965194;28;20042;-77
2022/08/02 00:04:38;;;;;;;14.35;3.05;;;;;;;;;;4963626;28;20503;-76
2022/08/02 00:07:03;;;;;;;8.25;2.65;;;;;;;;;;4966425;28;20039;-77
2022/08/02 00:09:30;;;;;;;8.90;3.00;;;;;;;;;;4962538;28;20035;-77
2022/08/02 00:11:55;;;;;;;9.75;3.25;;;;;;;;;;4964816;28;20511;-77
2022/08/02 00:14:22;;;;;;;5.57;2.30;;;;;;;;;;4967341;28;20069;-77
2022/08/02 00:16:48;;;;;;;7.38;2.67;;;;;;;;;;4953727;28;20038;-76
2022/08/02 00:19:14;;;;;;;5.00;2.63;;;;;;;;;;4966079;28;20038;-76
2022/08/02 00:21:40;;;;;;;7.85;2.83;;;;;;;;;;4967772;28;20460;-77
2022/08/02 00:24:06;;;;;;;9.63;2.58;;;;;;;;;;4967600;28;20026;-76
2022/08/02 00:26:32;;;;;;;8.05;2.50;;;;;;;;;;5029195;28;20057;-76
2022/08/02 00:28:58;;;;;;;8.95;2.80;;;;;;;;;;4967380;28;20038;-77
2022/08/02 00:31:24;;;;;;;11.70;2.60;;;;;;;;;;4965565;28;20110;-77
2022/08/02 00:33:50;;;;;;;5.88;2.63;;;;;;;;;;4963819;28;20094;-78
2022/08/02 00:36:16;;;;;;;10.60;2.65;;;;;;;;;;4942894;28;20095;-77
2022/08/02 00:38:42;;;;;;;7.28;3.20;;;;;;;;;;4963270;28;20503;-76
2022/08/02 00:41:12;;;;;;;14.80;3.28;;;;;;;;;;4940306;28;20057;-76
2022/08/02 00:43:38;;;;;;;12.95;2.88;;;;;;;;;;4966163;28;20037;-76
2022/08/02 00:46:04;;;;;;;12.23;3.50;;;;;;;;;;4947389;28;20042;-76
2022/08/02 00:48:30;;;;;;;9.15;3.03;;;;;;;;;;4948343;28;20043;-76
2022/08/02 00:50:56;;;;;;;9.80;3.22;;;;;;;;;;4951178;28;20027;-76
2022/08/02 00:53:22;;;;;;;9.43;3.35;;;;;;;;;;4941537;28;20053;-76
2022/08/02 00:55:48;;;;;;;8.25;3.67;;;;;;;;;;4967180;28;20050;-76
2022/08/02 00:58:14;;;;;;;8.85;2.80;;;;;;;;;;4973495;28;20059;-76
2022/08/02 01:00:40;;;;;;;10.50;3.30;;;;;;;;;;4968403;28;20031;-76
2022/08/02 01:03:06;;;;;;;12.80;3.78;;;;;;;;;;4966110;28;20559;-77
2022/08/02 01:05:32;;;;;;;9.00;3.17;;;;;;;;;;4966368;28;20031;-77
2022/08/02 01:07:58;;;;;;;10.25;3.38;;;;;;;;;;4936211;28;20106;-77
2022/08/02 01:10:24;;;;;;;8.57;3.30;;;;;;;;;;4966487;28;20050;-77
2022/08/02 01:12:50;;;;;;;11.95;3.67;;;;;;;;;;4965731;28;20066;-78
2022/08/02 01:15:17;;;;;;;12.00;3.60;;;;;;;;;;4949973;28;20533;-77
2022/08/02 01:17:47;;;;;;;10.13;2.83;;;;;;;;;;4949616;28;20487;-77
2022/08/02 01:20:39;;;;;;;13.07;3.10;;;;;;;;;;4965993;28;20038;-77
2022/08/02 01:23:05;;;;;;;6.88;2.88;;;;;;;;;;4949255;28;20290;-77
2022/08/02 01:25:50;;;;;;;10.88;3.22;;;;;;;;;;4947193;28;20038;-77
2022/08/02 01:28:31;;;;;;;7.88;2.63;;;;;;;;;;4967202;28;20030;-77
2022/08/02 01:30:57;;;;;;;;;;;;;;;;;;4959600;28;20067;-77
2022/08/02 01:33:26;;;;;;;7.50;2.97;;;;;;;;;;4951101;28;20487;-77
2022/08/02 01:35:53;;;;;;;8.60;2.95;;;;;;;;;;5032135;28;20994;-78
2022/08/02 01:38:25;;;;;;;10.95;2.78;;;;;;;;;;4963241;28;20053;-77
2022/08/02 01:40:53;;;;;;;11.10;3.38;;;;;;;;;;5031962;28;20031;-76
2022/08/02 01:43:20;;;;;;;8.18;2.90;;;;;;;;;;4966181;28;20176;-76
2022/08/02 01:45:47;;;;;;;9.35;2.92;;;;;;;;;;4963041;28;20034;-77
2022/08/02 01:48:14;;;;;;;6.45;2.80;;;;;;;;;;4967713;28;20031;-77
2022/08/02 01:50:40;;;;;;;13.80;3.33;;;;;;;;;;4948769;28;20042;-77
2022/08/02 01:53:08;;;;;;;6.55;2.72;;;;;;;;;;4965181;28;20058;-77
2022/08/02 01:55:37;;;;;;;6.95;2.95;;;;;;;;;;4949669;28;20337;-77
2022/08/02 01:58:05;;;;;;;9.05;2.60;;;;;;;;;;4968055;28;20113;-76
2022/08/02 02:00:33;;;;;;;7.65;2.90;;;;;;;;;;5028947;28;20031;-77
2022/08/02 02:03:00;;;;;;;6.60;3.08;;;;;;;;;;4965773;28;20110;-77
2022/08/02 02:05:28;;;;;;;9.60;3.15;;;;;;;;;;4967182;28;20042;-76
2022/08/02 02:07:56;;;;;;;11.80;2.70;;;;;;;;;;5032731;28;20047;-76
2022/08/02 02:10:25;;;;;;;13.73;3.10;;;;;;;;;;4973878;28;20502;-75
2022/08/02 02:12:52;;;;;;;8.07;2.83;;;;;;;;;;5045047;28;20031;-76
2022/08/02 02:15:19;;;;;;;7.65;2.72;;;;;;;;;;5035184;28;20031;-76
2022/08/02 02:17:47;;;;;;;10.07;2.83;;;;;;;;;;4967165;28;20023;-76
2022/08/02 02:20:15;;;;;;;11.50;3.38;;;;;;;;;;4967250;28;20074;-76
2022/08/02 02:22:42;;;;;;;5.97;2.78;;;;;;;;;;4968712;28;20026;-76
2022/08/02 02:25:08;;;;;;;9.57;2.70;;;;;;;;;;4968086;28;20121;-77
2022/08/02 02:27:35;;;;;;;9.80;2.70;;;;;;;;;;4964639;28;20159;-76
2022/08/02 02:30:02;;;;;;;9.10;2.67;;;;;;;;;;4964185;28;20030;-77
2022/08/02 02:32:28;;;;;;;10.63;4.10;;;;;;;;;;5027842;28;20493;-77
2022/08/02 02:34:55;;;;;;;11.38;3.08;;;;;;;;;;5031589;28;20112;-78
2022/08/02 02:37:22;;;;;;;6.38;2.90;;;;;;;;;;4964419;28;20407;-76
2022/08/02 02:39:50;;;;;;;9.95;2.70;;;;;;;;;;4960046;28;20038;-76
2022/08/02 02:42:18;;;;;;;9.73;2.55;;;;;;;;;;5028360;28;20027;-76
2022/08/02 02:44:45;;;;;;;9.63;2.60;;;;;;;;;;5032860;28;20542;-76
2022/08/02 02:47:12;;;;;;;12.65;4.57;;;;;;;;;;4964146;28;20092;-76
2022/08/02 02:49:38;;;;;;;8.05;2.80;;;;;;;;;;5030735;28;20027;-76
2022/08/02 02:52:05;;;;;;;15.13;2.97;;;;;;;;;;4969202;28;20133;-76
2022/08/02 02:54:32;;;;;;;9.25;3.17;;;;;;;;;;4963472;28;20038;-76
2022/08/02 02:56:58;;;;;;;12.05;3.63;;;;;;;;;;5032548;28;20108;-76
2022/08/02 02:59:24;;;;;;;8.35;2.72;;;;;;;;;;4975193;28;20185;-76
2022/08/02 03:01:51;;;;;;;7.05;3.13;;;;;;;;;;4950683;28;20035;-77
2022/08/02 03:04:17;;;;;;;9.95;3.35;;;;;;;;;;5036298;28;20039;-76
2022/08/02 03:06:43;;;;;;;12.88;3.50;;;;;;;;;;4965722;28;20419;-76
2022/08/02 03:09:09;;;;;;;8.45;3.22;;;;;;;;;;4967074;28;20039;-76
2022/08/02 03:11:36;;;;;;;10.85;3.13;;;;;;;;;;4958898;28;20467;-76
2022/08/02 03:14:03;;;;;;;11.48;3.40;;;;;;;;;;4954886;28;20361;-76
2022/08/02 03:16:30;;;;;;;12.05;3.63;;;;;;;;;;4963140;28;20027;-76
2022/08/02 03:18:57;;;;;;;12.25;3.35;;;;;;;;;;4966287;28;20027;-77
2022/08/02 03:21:23;;;;;;;10.95;3.95;;;;;;;;;;4967597;28;20495;-76
2022/08/02 03:23:50;;;;;;;12.38;3.15;;;;;;;;;;4967464;28;20037;-84
2022/08/02 03:26:16;;;;;;;12.70;3.72;;;;;;;;;;4965553;28;20528;-77
2022/08/02 03:28:45;;;;;;;14.00;3.58;;;;;;;;;;4966084;28;20039;-76
2022/08/02 03:31:11;;;;;;;11.45;2.88;;;;;;;;;;4967149;28;20485;-77
2022/08/02 03:33:38;;;;;;;11.32;3.47;;;;;;;;;;4966659;28;21623;-77
2022/08/02 03:36:11;;;;;;;10.23;2.75;;;;;;;;;;4966806;28;20041;-78
2022/08/02 03:38:37;;;;;;;16.08;3.55;;;;;;;;;;4966322;28;20395;-77
2022/08/02 03:41:05;;;;;;;7.80;3.47;;;;;;;;;;4970517;28;20062;-77
2022/08/02 03:43:31;;;;;;;9.60;3.47;;;;;;;;;;4967774;28;20089;-77
2022/08/02 03:45:58;;;;;;;12.73;4.68;;;;;;;;;;4950699;28;20116;-77
2022/08/02 03:48:24;;;;;;;11.63;4.15;;;;;;;;;;4943189;28;20035;-77
2022/08/02 03:50:51;;;;;;;9.07;3.35;;;;;;;;;;4966963;28;20081;-84
2022/08/02 03:53:17;;;;;;;13.15;3.47;;;;;;;;;;4946099;28;20046;-83
2022/08/02 03:55:44;;;;;;;11.45;3.30;;;;;;;;;;4965196;28;20026;-84
2022/08/02 03:58:19;;;;;;;10.55;4.07;;;;;;;;;;4966908;28;20100;-84
2022/08/02 04:00:45;;;;;;;9.52;3.20;;;;;;;;;;4927092;28;20043;-84
2022/08/02 04:03:11;;;;;;;8.18;3.30;;;;;;;;;;4984175;28;21683;-84
2022/08/02 04:05:37;;;;;;;7.78;3.22;;;;;;;;;;4949437;28;20134;-83
2022/08/02 04:08:03;;;;;;;11.38;3.63;;;;;;;;;;4950268;28;20126;-84
2022/08/02 04:10:29;;;;;;;8.68;3.38;;;;;;;;;;4929551;28;20043;-83
2022/08/02 04:12:56;;;;;;;9.95;3.72;;;;;;;;;;4948061;28;20054;-84
2022/08/02 04:15:22;;;;;;;7.57;3.10;;;;;;;;;;4947123;28;20476;-84
2022/08/02 04:17:56;;;;;;;9.35;3.30;;;;;;;;;;4948282;28;20508;-77
2022/08/02 04:20:24;;;;;;;11.43;3.22;;;;;;;;;;4944345;28;20035;-84
2022/08/02 04:22:53;;;;;;;12.63;3.67;;;;;;;;;;4946637;28;20036;-78
2022/08/02 04:25:19;;;;;;;8.68;3.65;;;;;;;;;;4945592;28;20555;-77
2022/08/02 04:27:46;;;;;;;12.50;3.92;;;;;;;;;;4930553;28;20039;-76
2022/08/02 04:30:13;;;;;;;12.18;3.80;;;;;;;;;;4943101;28;20032;-76
2022/08/02 04:32:39;;;;;;;6.63;3.55;;;;;;;;;;4949965;28;20061;-77
2022/08/02 04:35:06;;;;;;;10.93;4.07;;;;;;;;;;4941109;28;20443;-77
2022/08/02 04:37:32;;;;;;;9.38;3.88;;;;;;;;;;4945265;28;20137;-77
2022/08/02 04:39:58;;;;;;;9.90;4.15;;;;;;;;;;4931728;28;20377;-77
2022/08/02 04:42:25;;;;;;;13.68;4.40;;;;;;;;;;4947566;28;20450;-83
2022/08/02 04:44:52;;;;;;;8.95;4.15;;;;;;;;;;4943115;28;20547;-84
2022/08/02 04:47:18;;;;;;;14.07;4.20;;;;;;;;;;4930611;28;20062;-84
2022/08/02 04:49:44;;;;;;;14.15;4.05;;;;;;;;;;4958717;28;20488;-84
2022/08/02 04:52:10;;;;;;;11.60;3.75;;;;;;;;;;4947561;28;20039;-84
2022/08/02 04:54:36;;;;;;;8.30;3.40;;;;;;;;;;4946794;28;20042;-84
2022/08/02 04:57:53;;;;;;;9.93;3.88;;;;;;;;;;4958860;28;20200;-84
2022/08/02 04:59:48;;;;;;;11.95;3.40;;;;;;;;;;4959424;28;20050;-84
2022/08/02 05:02:14;;;;;;;9.23;3.60;;;;;;;;;;4964867;28;20031;-84
2022/08/02 05:04:40;;;;;;;8.85;3.40;;;;;;;;;;4966258;28;20507;-84
2022/08/02 05:07:06;;;;;;;12.45;3.67;;;;;;;;;;4949844;28;20118;-84
2022/08/02 05:09:32;;;;;;;11.07;3.50;;;;;;;;;;4964883;28;20049;-83
2022/08/02 05:11:58;;;;;;;9.45;3.45;;;;;;;;;;4965807;28;20030;-83
2022/08/02 05:14:24;;;;;;;25.17;4.32;;;;;;;;;;4942733;28;20396;-82
2022/08/02 05:16:50;;;;;;;11.07;3.10;;;;;;;;;;4965878;28;20022;-83
2022/08/02 05:19:16;;;;;;;10.10;3.15;;;;;;;;;;4948459;28;20136;-83
2022/08/02 05:21:42;;;;;;;8.38;3.22;;;;;;;;;;5028304;28;20035;-83
2022/08/02 05:24:08;;;;;;;10.40;3.33;;;;;;;;;;4948267;28;20046;-83
2022/08/02 05:26:34;;;;;;;8.88;3.40;;;;;;;;;;4963321;28;20125;-83
2022/08/02 05:29:00;;;;;;;8.38;3.15;;;;;;;;;;4964646;28;20047;-84
2022/08/02 05:31:26;;;;;;;10.07;3.00;;;;;;;;;;4966641;28;20076;-83
2022/08/02 05:33:52;;;;;;;13.77;3.80;;;;;;;;;;4965390;28;20030;-89
2022/08/02 05:36:18;;;;;;;8.75;2.90;;;;;;;;;;4966407;28;20065;-84
2022/08/02 05:38:44;;;;;;;12.68;3.13;;;;;;;;;;4967205;28;20026;-76
2022/08/02 05:41:10;;;;;;;16.20;3.60;;;;;;;;;;4964577;28;20115;-78
2022/08/02 05:43:36;;;;;;;11.40;3.40;;;;;;;;;;4949657;28;20038;-76
2022/08/02 05:46:02;;;;;;;6.68;3.33;;;;;;;;;;4943472;28;20031;-76
2022/08/02 05:48:28;;;;;;;6.13;2.80;;;;;;;;;;4964056;28;20038;-77
2022/08/02 05:50:56;;;;;;;11.20;3.60;;;;;;;;;;5031018;28;20037;-77
2022/08/02 05:53:35;;;;;;;9.18;3.30;;;;;;;;;;5029036;28;20122;-77
2022/08/02 05:56:23;;;;;;;12.43;3.92;;;;;;;;;;4961193;28;20031;-76
2022/08/02 05:59:02;;;;;;;12.73;4.30;;;;;;;;;;4963246;28;20161;-78
2022/08/02 06:01:32;;;;;;;9.93;4.10;;;;;;;;;;4961303;28;20026;-77
2022/08/02 06:03:59;;;;;;;8.77;4.30;;;;;;;;;;4960508;28;20035;-77
2022/08/02 06:06:26;;;;;;;12.30;4.25;;;;;;;;;;4962459;28;20294;-85
2022/08/02 06:08:59;;;;;;;7.45;3.90;;;;;;;;;;4950896;28;20026;-84
2022/08/02 06:11:30;;;;;;;11.75;4.20;;;;;;;;;;4963394;28;20023;-84
2022/08/02 06:13:57;;;;;;;9.93;4.00;;;;;;;;;;5027258;28;20034;-84
2022/08/02 06:16:23;;;;;;;12.65;4.78;;;;;;;;;;4963522;28;20050;-85
2022/08/02 06:18:49;;;;;;;10.70;4.38;;;;;;;;;;4948536;28;20185;-86
2022/08/02 06:21:16;;;;;;;9.07;4.47;;;;;;;;;;4949270;28;20122;-75
2022/08/02 06:23:42;;;;;;;12.80;4.47;;;;;;;;;;4960838;28;20046;-76
2022/08/02 06:26:09;;;;;;;12.35;4.70;;;;;;;;;;4964111;28;20035;-76
2022/08/02 06:28:38;;;;;;;10.43;4.70;;;;;;;;;;4963594;28;20034;-76
2022/08/02 06:31:07;;;;;;;17.92;5.05;;;;;;;;;;4960523;28;20023;-76
2022/08/02 06:33:33;;;;;;;15.23;4.35;;;;;;;;;;4948201;28;20027;-78
2022/08/02 06:35:59;;;;;;;11.25;4.70;;;;;;;;;;4942181;28;20027;-86
2022/08/02 06:38:27;;;;;;;10.32;4.35;;;;;;;;;;4968029;28;20057;-87
2022/08/02 06:41:01;;;;;;;11.38;4.80;;;;;;;;;;4963883;28;20037;-87
2022/08/02 06:43:59;;;;;;;9.65;4.90;;;;;;;;;;4972651;28;20046;-86
2022/08/02 06:46:25;;;;;;;14.23;5.15;;;;;;;;;;4920063;28;20132;-86
2022/08/02 06:48:51;;;;;;;14.85;4.53;;;;;;;;;;4970516;28;20807;-86
2022/08/02 06:51:17;;;;;;;11.48;4.75;;;;;;;;;;4971269;28;20106;-87
2022/08/02 06:53:43;;;;;;;17.92;5.38;;;;;;;;;;4970962;28;20355;-87
2022/08/02 06:56:09;;;;;;;11.13;5.05;;;;;;;;;;4953896;28;20507;-88
2022/08/02 06:58:35;;;;;;;13.88;5.55;;;;;;;;;;4971124;28;20073;-86
2022/08/02 07:01:05;;;;;;;10.57;5.25;;;;;;;;;;4969634;28;20038;-87
2022/08/02 07:03:32;;;;;;;12.07;5.30;;;;;;;;;;4971200;28;20042;-87
2022/08/02 07:05:58;;;;;;;15.32;6.22;;;;;;;;;;4954218;28;20033;-87
2022/08/02 07:08:25;;;;;;;10.07;4.95;;;;;;;;;;4971492;28;20117;-87
2022/08/02 07:10:51;;;;;;;10.10;5.30;;;;;;;;;;4970090;28;20080;-88
2022/08/02 07:13:17;;;;;;;15.75;6.57;;;;;;;;;;4954245;28;20027;-87
2022/08/02 07:15:43;;;;;;;10.85;6.65;;;;;;;;;;4971172;28;20034;-87
2022/08/02 07:18:13;;;;;;;17.10;6.63;;;;;;;;;;4953321;28;20031;-87
2022/08/02 07:20:40;;;;;;;14.52;5.78;;;;;;;;;;4970470;28;20133;-87
2022/08/02 07:23:06;;;;;;;13.98;7.07;;;;;;;;;;4953814;28;20499;-88
2022/08/02 07:25:32;;;;;;;12.30;8.10;;;;;;;;;;4971037;28;20056;-86
2022/08/02 07:27:58;;;;;;;15.13;8.95;;;;;;;;;;4970837;28;20042;-87
2022/08/02 07:30:24;;;;;;;15.35;8.60;;;;;;;;;;4970501;28;20161;-85
2022/08/02 07:32:50;;;;;;;23.90;10.18;;;;;;;;;;4952824;28;20129;-88
2022/08/02 07:35:16;;;;;;;18.10;9.63;;;;;;;;;;4953674;28;20030;-87
2022/08/02 07:37:45;;;;;;;19.58;10.32;;;;;;;;;;4970780;28;20459;-87
2022/08/02 07:40:11;;;;;;;18.67;10.77;;;;;;;;;;4970297;28;20030;-88
2022/08/02 07:42:37;;;;;;;16.30;9.68;;;;;;;;;;4969540;28;20118;-86
2022/08/02 07:45:03;;;;;;;16.23;10.32;;;;;;;;;;4952571;28;20129;-86
2022/08/02 07:47:29;;;;;;;21.15;9.80;;;;;;;;;;4953368;28;20515;-86
2022/08/02 07:49:55;;;;;;;20.45;10.10;;;;;;;;;;4953159;28;20152;-88
2022/08/02 07:52:21;;;;;;;13.38;9.38;;;;;;;;;;4968875;28;20041;-87
2022/08/02 07:54:48;;;;;;;19.42;9.98;;;;;;;;;;4953314;28;20034;-88
2022/08/02 07:57:14;;;;;;;18.35;10.05;;;;;;;;;;4970062;28;20297;-87
2022/08/02 07:59:40;;;;;;;15.98;10.25;;;;;;;;;;4952533;28;20131;-88
2022/08/02 08:02:06;;;;;;;17.55;10.05;;;;;;;;;;4967071;28;20038;-88
2022/08/02 08:04:32;;;;;;;14.48;9.80;;;;;;;;;;4933218;29;20046;-87
2022/08/02 08:06:58;;;;;;;14.07;8.82;;;;;;;;;;4949878;28;20110;-88
2022/08/02 08:09:24;;;;;;;13.82;8.43;;;;;;;;;;4951158;28;20035;-86
2022/08/02 08:11:50;;;;;;;10.48;7.85;;;;;;;;;;4956831;28;20054;-87
2022/08/02 08:14:16;;;;;;;10.23;7.13;;;;;;;;;;4952802;28;20471;-85
2022/08/02 08:16:42;;;;;;;18.77;8.10;;;;;;;;;;4953172;28;20065;-87
2022/08/02 08:19:08;;;;;;;13.65;8.18;;;;;;;;;;4970532;28;20035;-87
2022/08/02 08:21:34;;;;;;;10.50;7.55;;;;;;;;;;4970298;28;20467;-86
2022/08/02 08:24:00;;;;;;;16.80;7.82;;;;;;;;;;4952197;28;20031;-87
2022/08/02 08:26:26;;;;;;;15.00;7.78;;;;;;;;;;4952471;28;20041;-88
2022/08/02 08:28:52;;;;;;;10.73;6.70;;;;;;;;;;4970179;28;20114;-88
2022/08/02 08:31:18;;;;;;;14.68;6.95;;;;;;;;;;4953081;28;20027;-87
2022/08/02 08:33:44;;;;;;;11.32;6.95;;;;;;;;;;4969642;28;20035;-87
2022/08/02 08:36:10;;;;;;;11.48;8.00;;;;;;;;;;4951282;28;20039;-87
2022/08/02 08:38:36;;;;;;;13.40;8.43;;;;;;;;;;4969982;28;20035;-88
2022/08/02 08:41:02;;;;;;;10.13;7.15;;;;;;;;;;4969872;28;20058;-87
2022/08/02 08:43:28;;;;;;;12.77;7.80;;;;;;;;;;4952619;28;20483;-87
2022/08/02 08:45:54;;;;;;;14.50;7.15;;;;;;;;;;4968871;28;20102;-90
2022/08/02 08:48:22;;;;;;;17.38;7.57;;;;;;;;;;4952612;28;20065;-87
2022/08/02 08:50:48;;;;;;;13.05;6.07;;;;;;;;;;4969478;28;20480;-88
2022/08/02 08:53:14;;;;;;;12.43;7.07;;;;;;;;;;4969665;28;20030;-88
2022/08/02 08:55:42;;;;;;;14.95;7.00;;;;;;;;;;4967927;28;20050;-87
2022/08/02 08:58:08;;;;;;;15.88;7.88;;;;;;;;;;4952152;28;20023;-87
2022/08/02 09:00:35;;;;;;;19.08;7.95;;;;;;;;;;4967969;28;20408;-88
2022/08/02 09:03:05;;;;;;;11.23;7.32;;;;;;;;;;4969815;28;20065;-88
2022/08/02 09:05:31;;;;;;;16.73;7.32;;;;;;;;;;4952428;28;20126;-88
2022/08/02 09:07:57;;;;;;;16.63;8.60;;;;;;;;;;4969603;28;20058;-87
2022/08/02 09:10:33;;;;;;;19.10;9.60;;;;;;;;;;4951390;28;20053;-87
2022/08/02 09:13:06;;;;;;;18.00;8.85;;;;;;;;;;4969200;28;20426;-89
2022/08/02 09:15:32;;;;;;;19.60;10.77;;;;;;;;;;4951672;28;20038;-88
2022/08/02 09:17:58;;;;;;;35.47;11.90;;;;;;;;;;4968703;28;20089;-90
2022/08/02 09:20:25;;;;;;;19.42;10.77;;;;;;;;;;4951572;28;20062;-88
2022/08/02 09:23:10;;;;;;;19.10;10.45;;;;;;;;;;4967638;28;20061;-89
2022/08/02 09:25:36;;;;;;;18.65;10.63;;;;;;;;;;4969267;28;20084;-89
2022/08/02 09:28:05;;;;;;;19.80;10.82;;;;;;;;;;4969070;28;20441;-87
2022/08/02 09:30:32;;;;;;;17.48;10.38;;;;;;;;;;4969160;28;20031;-88
2022/08/02 09:32:58;;;;;;;17.45;11.70;;;;;;;;;;4951336;28;20031;-88
2022/08/02 09:35:31;;;;;;;21.88;12.40;;;;;;;;;;4969134;28;20091;-88
2022/08/02 09:38:11;;;;;;;20.95;11.90;;;;;;;;;;4969236;28;20027;-87
2022/08/02 09:40:38;;;;;;;21.60;11.50;;;;;;;;;;4969304;28;20166;-87
2022/08/02 09:43:04;;;;;;;18.67;12.73;;;;;;;;;;4969381;28;20083;-88
2022/08/02 09:45:33;;;;;;;18.83;12.35;;;;;;;;;;4968607;28;20022;-89
2022/08/02 09:47:59;;;;;;;26.75;14.20;;;;;;;;;;4951838;28;20030;-88
2022/08/02 09:50:25;;;;;;;23.25;13.60;;;;;;;;;;4951745;28;20031;-88
2022/08/02 09:52:51;;;;;;;17.63;12.00;;;;;;;;;;4951101;28;20114;-89
2022/08/02 09:55:17;;;;;;;19.42;11.45;;;;;;;;;;4968555;28;20041;-88
2022/08/02 09:57:43;;;;;;;18.45;10.25;;;;;;;;;;4968360;28;20447;-88
2022/08/02 10:00:10;;;;;;;22.70;10.43;;;;;;;;;;4967098;28;20046;-88
2022/08/02 10:02:36;;;;;;;22.42;9.30;;;;;;;;;;4967674;28;20139;-88
2022/08/02 10:05:02;;;;;;;13.10;8.68;;;;;;;;;;4968562;28;20034;-88
2022/08/02 10:07:29;;;;;;;16.77;8.57;;;;;;;;;;4952435;28;20118;-88
2022/08/02 10:09:56;;;;;;;14.18;8.07;;;;;;;;;;4954170;28;20507;-89
2022/08/02 10:12:22;;;;;;;14.43;7.85;;;;;;;;;;4971594;28;20034;-87
2022/08/02 10:14:51;;;;;;;13.07;7.47;;;;;;;;;;4971510;28;20033;-88
2022/08/02 10:17:21;;;;;;;12.40;6.90;;;;;;;;;;4953556;28;20038;-87
2022/08/02 10:19:47;;;;;;;10.87;6.13;;;;;;;;;;4970485;28;20445;-88
2022/08/02 10:22:14;;;;;;;14.65;6.53;;;;;;;;;;4971537;28;20038;-87
2022/08/02 10:24:40;;;;;;;10.55;6.00;;;;;;;;;;4971622;28;20879;-87
2022/08/02 10:27:33;;;;;;;9.52;5.15;;;;;;;;;;4954134;28;20027;-88
2022/08/02 10:29:59;;;;;;;12.65;5.40;;;;;;;;;;4954316;28;20047;-89
2022/08/02 10:32:39;;;;;;;7.05;4.95;;;;;;;;;;4952173;28;20019;-88
2022/08/02 10:35:13;;;;;;;8.43;5.68;;;;;;;;;;4952509;28;20039;-87
2022/08/02 10:37:40;;;;;;;8.10;4.75;;;;;;;;;;4952540;28;20020;-87
2022/08/02 10:40:21;;;;;;;8.52;4.85;;;;;;;;;;4957910;28;20022;-88
2022/08/02 10:42:51;;;;;;;15.63;4.57;;;;;;;;;;4971293;28;20559;-88
2022/08/02 10:45:19;;;;;;;8.07;4.45;;;;;;;;;;4971533;28;20084;-87
2022/08/02 10:48:04;;;;;;;11.98;5.35;;;;;;;;;;4954481;28;20061;-88
2022/08/02 10:50:46;;;;;;;10.40;4.70;;;;;;;;;;4970895;28;20031;-88
2022/08/02 10:53:21;;;;;;;8.98;4.28;;;;;;;;;;4971157;28;20146;-87
2022/08/02 10:55:47;;;;;;;13.57;5.13;;;;;;;;;;4971446;28;20031;-87
2022/08/02 10:58:18;;;;;;;9.93;4.63;;;;;;;;;;4971339;28;20042;-87
2022/08/02 11:00:44;;;;;;;9.95;4.55;;;;;;;;;;4971016;28;20121;-87
2022/08/02 11:03:28;;;;;;;9.25;4.10;;;;;;;;;;4971180;28;20106;-88
2022/08/02 11:06:02;;;;;;;16.73;3.53;;;;;;;;;;4971149;28;20031;-91
2022/08/02 11:08:29;;;;;;;7.82;4.25;;;;;;;;;;4970020;28;20034;-87
2022/08/02 11:11:13;;;;;;;10.88;3.03;;;;;;;;;;4969463;28;20491;-93
2022/08/02 11:13:58;;;;;;;10.82;3.45;;;;;;;;;;4971197;28;20398;-87
2022/08/02 11:16:44;;;;;;;8.02;3.15;;;;;;;;;;4971062;28;20031;-87
2022/08/02 11:19:10;;;;;;;10.70;5.20;;;;;;;;;;4968500;28;20545;-89
2022/08/02 11:21:36;;;;;;;11.00;4.07;;;;;;;;;;4971044;28;20045;-87
2022/08/02 11:24:24;;;;;;;9.40;3.53;;;;;;;;;;4970769;28;20392;-88
2022/08/02 11:26:50;;;;;;;11.48;4.30;;;;;;;;;;4971087;28;20109;-87
2022/08/02 11:29:17;;;;;;;8.02;3.38;;;;;;;;;;4969749;28;20053;-87
2022/08/02 11:31:44;;;;;;;8.80;3.63;;;;;;;;;;4970088;28;21176;-87
2022/08/02 11:34:10;;;;;;;17.10;3.85;;;;;;;;;;4970770;28;20275;-86
2022/08/02 11:36:50;;;;;;;12.02;3.88;;;;;;;;;;4953601;28;20506;-87
2022/08/02 11:39:17;;;;;;;9.68;3.83;;;;;;;;;;4953381;28;20037;-85
2022/08/02 11:41:48;;;;;;;9.98;4.75;;;;;;;;;;4969025;28;20031;-88
2022/08/02 11:44:14;;;;;;;9.02;3.70;;;;;;;;;;4970566;28;20127;-86
2022/08/02 11:46:40;;;;;;;8.95;3.50;;;;;;;;;;4970410;28;20438;-86
2022/08/02 11:49:17;;;;;;;12.45;3.45;;;;;;;;;;4970329;28;20038;-87
2022/08/02 11:51:58;;;;;;;10.73;4.97;;;;;;;;;;4970604;28;20452;-87
2022/08/02 11:54:28;;;;;;;10.43;3.92;;;;;;;;;;4970101;28;20027;-87
2022/08/02 11:56:54;;;;;;;5.55;2.58;;;;;;;;;;4970796;28;20037;-87
2022/08/02 11:59:21;;;;;;;7.35;2.83;;;;;;;;;;4970685;28;20092;-87
2022/08/02 12:01:47;;;;;;;8.05;2.47;;;;;;;;;;4939445;29;20047;-86
2022/08/02 12:04:19;;;;;;;9.20;2.80;;;;;;;;;;4950758;29;20110;-85
2022/08/02 12:06:55;;;;;;;5.53;2.67;;;;;;;;;;4933952;29;20027;-89
2022/08/02 12:09:21;;;;;;;7.00;2.63;;;;;;;;;;4951413;29;20031;-87
2022/08/02 12:11:48;;;;;;;5.82;2.80;;;;;;;;;;4951071;29;20377;-87
2022/08/02 12:14:14;;;;;;;6.03;2.83;;;;;;;;;;4933984;29;20031;-86
2022/08/02 12:19:26;;;;;;;5.18;2.80;;;;;;;;;;4951754;28;20054;-86
2022/08/02 12:22:11;;;;;;;5.30;2.40;;;;;;;;;;4935461;28;20412;-86
2022/08/02 12:24:38;;;;;;;6.57;2.25;;;;;;;;;;4950832;29;20102;-87
2022/08/02 12:27:04;;;;;;;12.00;2.92;;;;;;;;;;4950578;29;20488;-87
2022/08/02 12:29:35;;;;;;;7.63;2.53;;;;;;;;;;4950612;29;20031;-85
2022/08/02 12:32:01;;;;;;;13.05;2.97;;;;;;;;;;4988009;28;20060;-87
2022/08/02 12:34:29;;;;;;;7.60;3.00;;;;;;;;;;4931498;28;20070;-87
2022/08/02 12:36:58;;;;;;;6.40;2.65;;;;;;;;;;4931045;29;20024;-88
2022/08/02 12:39:33;;;;;;;6.30;2.25;;;;;;;;;;4935534;28;20045;-87
2022/08/02 12:41:59;;;;;;;7.47;2.40;;;;;;;;;;4932758;29;20495;-87
2022/08/02 12:44:25;;;;;;;7.93;2.50;;;;;;;;;;4948922;28;20063;-86
2022/08/02 12:47:01;;;;;;;9.02;2.35;;;;;;;;;;4933695;29;20112;-86
2022/08/02 12:49:27;;;;;;;17.17;2.95;;;;;;;;;;4950147;29;20080;-86
2022/08/02 12:51:53;;;;;;;14.35;2.90;;;;;;;;;;4950415;29;20035;-86
2022/08/02 12:54:24;;;;;;;6.47;2.50;;;;;;;;;;4932059;29;20032;-76
2022/08/02 12:56:49;;;;;;;;;;;;;;;;;;4933201;29;20027;-77
2022/08/02 12:59:17;;;;;;;8.52;2.60;;;;;;;;;;4957903;28;20290;-76
2022/08/02 13:01:44;;;;;;;5.80;2.40;;;;;;;;;;4967030;28;20038;-77
2022/08/02 13:04:10;;;;;;;7.03;2.88;;;;;;;;;;4951418;28;20125;-76
2022/08/02 13:06:36;;;;;;;6.90;2.50;;;;;;;;;;4932805;29;20031;-76
2022/08/02 13:09:11;;;;;;;5.43;2.47;;;;;;;;;;4962081;28;20035;-87
2022/08/02 13:11:37;;;;;;;10.35;3.70;;;;;;;;;;4965485;28;20046;-87
2022/08/02 13:14:03;;;;;;;9.90;3.08;;;;;;;;;;5010389;28;20461;-86
2022/08/02 13:16:30;;;;;;;13.73;2.40;;;;;;;;;;4954946;28;20035;-86
2022/08/02 13:18:56;;;;;;;11.70;2.25;;;;;;;;;;4964201;28;20679;-77
2022/08/02 13:21:22;;;;;;;5.05;2.10;;;;;;;;;;4965746;28;20058;-76
2022/08/02 13:23:49;;;;;;;5.88;1.92;;;;;;;;;;4964572;28;20023;-75
2022/08/02 13:26:15;;;;;;;5.35;2.50;;;;;;;;;;4966486;28;20031;-75
2022/08/02 13:28:41;;;;;;;5.38;2.50;;;;;;;;;;4967500;28;20083;-76
2022/08/02 13:31:07;;;;;;;9.32;2.90;;;;;;;;;;4968799;28;20034;-76
2022/08/02 13:33:33;;;;;;;8.52;3.47;;;;;;;;;;4967369;28;20419;-77
2022/08/02 13:35:59;;;;;;;7.68;3.05;;;;;;;;;;4967322;28;20124;-86
2022/08/02 13:38:26;;;;;;;10.70;3.50;;;;;;;;;;4959529;28;20023;-76
2022/08/02 13:41:07;;;;;;;7.05;3.90;;;;;;;;;;4973264;28;20041;-87
2022/08/02 13:43:33;;;;;;;5.60;3.60;;;;;;;;;;4967942;28;20035;-87
2022/08/02 13:45:59;;;;;;;6.10;3.35;;;;;;;;;;4967922;28;20030;-76
2022/08/02 13:48:25;;;;;;;5.70;3.00;;;;;;;;;;4968520;28;20027;-76
2022/08/02 13:50:51;;;;;;;8.75;3.13;;;;;;;;;;4968431;28;20423;-75
2022/08/02 13:53:17;;;;;;;13.30;3.33;;;;;;;;;;4948955;28;20055;-76
2022/08/02 13:55:43;;;;;;;8.55;2.75;;;;;;;;;;4960959;28;20495;-77
2022/08/02 13:58:09;;;;;;;6.63;2.47;;;;;;;;;;4967272;28;20109;-77
2022/08/02 14:00:36;;;;;;;7.35;2.40;;;;;;;;;;4973329;28;20059;-75
2022/08/02 14:03:02;;;;;;;7.63;2.90;;;;;;;;;;4939939;28;20174;-75
2022/08/02 14:05:30;;;;;;;6.65;2.53;;;;;;;;;;4955585;28;20640;-75
2022/08/02 14:07:57;;;;;;;10.55;3.17;;;;;;;;;;4969597;28;20038;-76
2022/08/02 14:10:24;;;;;;;7.22;2.90;;;;;;;;;;4950791;28;20046;-76
2022/08/02 14:12:51;;;;;;;8.30;2.80;;;;;;;;;;4968144;28;20188;-75
2022/08/02 14:15:17;;;;;;;9.90;2.45;;;;;;;;;;4967166;28;20039;-76
2022/08/02 14:17:42;;;;;;;7.10;2.40;;;;;;;;;;4950341;28;20050;-76
2022/08/02 14:20:09;;;;;;;6.88;2.85;;;;;;;;;;4964884;28;20118;-76
2022/08/02 14:22:35;;;;;;;9.30;3.05;;;;;;;;;;4960629;28;20096;-76
2022/08/02 14:25:01;;;;;;;8.70;2.33;;;;;;;;;;4963773;28;20495;-77
2022/08/02 14:27:27;;;;;;;7.15;2.53;;;;;;;;;;4965105;28;20031;-76
2022/08/02 14:29:53;;;;;;;6.63;2.80;;;;;;;;;;4977784;28;20480;-76
2022/08/02 14:32:19;;;;;;;10.55;2.53;;;;;;;;;;4968714;28;20034;-76
2022/08/02 14:34:45;;;;;;;5.40;2.03;;;;;;;;;;4947943;28;20055;-87
2022/08/02 14:37:11;;;;;;;5.97;2.38;;;;;;;;;;4948843;28;20073;-76
2022/08/02 14:39:37;;;;;;;12.48;1.92;;;;;;;;;;5020932;28;20181;-75
2022/08/02 14:42:03;;;;;;;8.20;2.63;;;;;;;;;;4968111;28;20039;-77
2022/08/02 14:44:29;;;;;;;10.23;2.80;;;;;;;;;;4951251;28;20166;-76